sensor_id;sensor_type;location;lat;lon;timestamp;pressure;altitude;pressure_sealevel;temperature;humidity
52855;BME280;38719;51.418;7.286;2022-08-21T00:01:39;99969.53;;;19.53;63.78
52855;BME280;38719;51.418;7.286;2022-08-21T00:04:08;99973.50;;;19.48;64.84
52855;BME280;38719;51.418;7.286;2022-08-21T00:06:36;99973.63;;;19.47;65.25
52855;BME280;38719;51.418;7.286;2022-08-21T00:09:06;99975.09;;;19.40;65.06
52855;BME280;38719;51.418;7.286;2022-08-21T00:11:37;99962.34;;;19.42;64.78
52855;BME280;38719;51.418;7.286;2022-08-21T00:14:07;99966.22;;;19.49;64.79
52855;BME280;38719;51.418;7.286;2022-08-21T00:16:36;99957.28;;;19.48;64.84
52855;BME280;38719;51.418;7.286;2022-08-21T00:19:05;99955.91;;;19.65;63.52
52855;BME280;38719;51.418;7.286;2022-08-21T00:21:34;99949.97;;;19.72;63.40
52855;BME280;38719;51.418;7.286;2022-08-21T00:24:02;99951.59;;;19.63;63.72
52855;BME280;38719;51.418;7.286;2022-08-21T00:26:30;99952.22;;;19.67;64.26
52855;BME280;38719;51.418;7.286;2022-08-21T00:28:59;99953.84;;;19.58;63.75
52855;BME280;38719;51.418;7.286;2022-08-21T00:31:27;99954.41;;;19.61;64.34
52855;BME280;38719;51.418;7.286;2022-08-21T00:33:54;99948.53;;;19.56;63.33
52855;BME280;38719;51.418;7.286;2022-08-21T00:36:26;99942.53;;;19.53;63.73
52855;BME280;38719;51.418;7.286;2022-08-21T00:38:54;99935.81;;;19.47;63.49
52855;BME280;38719;51.418;7.286;2022-08-21T00:41:21;99938.31;;;19.27;64.51
52855;BME280;38719;51.418;7.286;2022-08-21T00:44:05;99935.13;;;19.22;64.78
52855;BME280;38719;51.418;7.286;2022-08-21T00:46:33;99930.09;;;19.17;64.77
52855;BME280;38719;51.418;7.286;2022-08-21T00:49:01;99939.53;;;19.12;65.17
52855;BME280;38719;51.418;7.286;2022-08-21T00:51:35;99932.06;;;19.15;64.96
52855;BME280;38719;51.418;7.286;2022-08-21T00:54:05;99942.03;;;19.04;65.29
52855;BME280;38719;51.418;7.286;2022-08-21T00:56:45;99938.34;;;19.05;65.38
52855;BME280;38719;51.418;7.286;2022-08-21T00:59:15;99938.34;;;19.05;65.29
52855;BME280;38719;51.418;7.286;2022-08-21T01:01:43;99940.53;;;18.99;66.24
52855;BME280;38719;51.418;7.286;2022-08-21T01:04:11;99944.84;;;19.02;66.30
52855;BME280;38719;51.418;7.286;2022-08-21T01:06:39;99946.81;;;19.00;66.14
52855;BME280;38719;51.418;7.286;2022-08-21T01:09:07;99952.06;;;19.01;67.23
52855;BME280;38719;51.418;7.286;2022-08-21T01:11:35;99946.31;;;19.06;66.62
52855;BME280;38719;51.418;7.286;2022-08-21T01:14:03;99936.50;;;19.05;66.77
52855;BME280;38719;51.418;7.286;2022-08-21T01:16:32;99939.53;;;19.12;66.37
52855;BME280;38719;51.418;7.286;2022-08-21T01:19:00;99930.59;;;19.11;66.45
52855;BME280;38719;51.418;7.286;2022-08-21T01:21:29;99944.44;;;19.18;66.54
52855;BME280;38719;51.418;7.286;2022-08-21T01:23:57;99938.94;;;19.20;66.44
52855;BME280;38719;51.418;7.286;2022-08-21T01:26:29;99938.94;;;19.20;66.55
52855;BME280;38719;51.418;7.286;2022-08-21T01:29:01;99933.75;;;19.28;65.77
52855;BME280;38719;51.418;7.286;2022-08-21T01:31:30;99935.38;;;19.19;65.84
52855;BME280;38719;51.418;7.286;2022-08-21T01:33:59;99935.13;;;19.22;66.13
52855;BME280;38719;51.418;7.286;2022-08-21T01:36:29;99937.34;;;19.17;66.44
52855;BME280;38719;51.418;7.286;2022-08-21T01:38:57;99942.00;;;19.26;66.43
52855;BME280;38719;51.418;7.286;2022-08-21T01:41:25;99943.94;;;19.24;65.64
52855;BME280;38719;51.418;7.286;2022-08-21T01:43:52;99933.53;;;19.20;65.48
52855;BME280;38719;51.418;7.286;2022-08-21T01:46:20;99934.66;;;19.17;66.18
52855;BME280;38719;51.418;7.286;2022-08-21T01:48:48;99937.84;;;19.22;65.11
52855;BME280;38719;51.418;7.286;2022-08-21T01:51:16;99927.56;;;19.05;65.97
52855;BME280;38719;51.418;7.286;2022-08-21T01:53:45;99929.88;;;18.98;66.72
52855;BME280;38719;51.418;7.286;2022-08-21T01:56:15;99936.25;;;18.97;66.96
52855;BME280;38719;51.418;7.286;2022-08-21T01:58:47;99930.00;;;18.96;66.44
52855;BME280;38719;51.418;7.286;2022-08-21T02:01:15;99927.91;;;18.89;65.66
52855;BME280;38719;51.418;7.286;2022-08-21T02:03:43;99938.81;;;18.76;66.35
52855;BME280;38719;51.418;7.286;2022-08-21T02:06:13;99931.69;;;18.63;67.29
52855;BME280;38719;51.418;7.286;2022-08-21T02:08:45;99934.03;;;18.57;67.63
52855;BME280;38719;51.418;7.286;2022-08-21T02:11:13;99931.06;;;18.48;67.22
52855;BME280;38719;51.418;7.286;2022-08-21T02:13:42;99924.69;;;18.38;68.16
52855;BME280;38719;51.418;7.286;2022-08-21T02:16:10;99923.44;;;18.31;68.73
52855;BME280;38719;51.418;7.286;2022-08-21T02:18:44;99917.19;;;18.30;67.90
52855;BME280;38719;51.418;7.286;2022-08-21T02:21:12;99924.03;;;18.23;68.20
52855;BME280;38719;51.418;7.286;2022-08-21T02:23:39;99927.44;;;18.14;68.54
52855;BME280;38719;51.418;7.286;2022-08-21T02:26:09;99912.97;;;18.03;68.24
52855;BME280;38719;51.418;7.286;2022-08-21T02:28:37;99924.84;;;18.01;68.61
52855;BME280;38719;51.418;7.286;2022-08-21T02:31:05;99917.59;;;18.01;68.66
52855;BME280;38719;51.418;7.286;2022-08-21T02:33:33;99920.56;;;17.98;68.52
52855;BME280;38719;51.418;7.286;2022-08-21T02:36:01;99920.09;;;17.92;69.24
52855;BME280;38719;51.418;7.286;2022-08-21T02:38:32;99915.09;;;17.87;68.86
52855;BME280;38719;51.418;7.286;2022-08-21T02:41:00;99916.75;;;17.77;68.86
52855;BME280;38719;51.418;7.286;2022-08-21T02:43:29;99917.97;;;17.72;69.06
52855;BME280;38719;51.418;7.286;2022-08-21T02:45:58;99913.69;;;17.70;69.06
52855;BME280;38719;51.418;7.286;2022-08-21T02:48:27;99914.53;;;17.70;69.26
52855;BME280;38719;51.418;7.286;2022-08-21T02:50:56;99909.59;;;17.64;69.38
52855;BME280;38719;51.418;7.286;2022-08-21T02:53:25;99920.16;;;17.67;68.92
52855;BME280;38719;51.418;7.286;2022-08-21T02:55:53;99917.56;;;17.66;69.77
52855;BME280;38719;51.418;7.286;2022-08-21T02:58:24;99910.88;;;17.71;68.94
52855;BME280;38719;51.418;7.286;2022-08-21T03:00:53;99918.09;;;17.47;70.15
52855;BME280;38719;51.418;7.286;2022-08-21T03:03:21;99914.53;;;17.22;71.17
52855;BME280;38719;51.418;7.286;2022-08-21T03:05:49;99916.19;;;17.36;71.52
52855;BME280;38719;51.418;7.286;2022-08-21T03:08:17;99917.03;;;17.61;70.42
52855;BME280;38719;51.418;7.286;2022-08-21T03:10:48;99911.72;;;17.72;70.07
52855;BME280;38719;51.418;7.286;2022-08-21T03:13:16;99913.94;;;17.78;69.76
52855;BME280;38719;51.418;7.286;2022-08-21T03:15:44;99908.91;;;17.73;69.47
52855;BME280;38719;51.418;7.286;2022-08-21T03:18:16;99905.72;;;17.68;69.69
52855;BME280;38719;51.418;7.286;2022-08-21T03:20:45;99901.06;;;17.70;69.96
52855;BME280;38719;51.418;7.286;2022-08-21T03:23:15;99905.81;;;17.67;69.88
52855;BME280;38719;51.418;7.286;2022-08-21T03:25:46;99902.16;;;17.68;69.87
52855;BME280;38719;51.418;7.286;2022-08-21T03:28:16;99905.66;;;17.57;70.04
52855;BME280;38719;51.418;7.286;2022-08-21T03:30:47;99903.41;;;17.51;69.74
52855;BME280;38719;51.418;7.286;2022-08-21T03:33:17;99901.00;;;17.59;69.32
52855;BME280;38719;51.418;7.286;2022-08-21T03:35:54;99899.75;;;17.52;69.70
52855;BME280;38719;51.418;7.286;2022-08-21T03:38:24;99898.16;;;17.49;69.60
52855;BME280;38719;51.418;7.286;2022-08-21T03:40:52;99896.09;;;17.53;69.45
52855;BME280;38719;51.418;7.286;2022-08-21T03:43:20;99898.72;;;17.42;69.65
52855;BME280;38719;51.418;7.286;2022-08-21T03:45:48;99901.59;;;17.27;70.19
52855;BME280;38719;51.418;7.286;2022-08-21T03:48:19;99900.56;;;17.04;71.34
52855;BME280;38719;51.418;7.286;2022-08-21T03:50:51;99902.09;;;17.32;69.99
52855;BME280;38719;51.418;7.286;2022-08-21T03:53:20;99900.78;;;17.38;69.99
52855;BME280;38719;51.418;7.286;2022-08-21T03:55:49;99893.22;;;17.43;69.79
52855;BME280;38719;51.418;7.286;2022-08-21T03:58:22;99903.25;;;17.41;69.37
52855;BME280;38719;51.418;7.286;2022-08-21T04:00:52;99900.78;;;17.38;69.35
52855;BME280;38719;51.418;7.286;2022-08-21T04:03:22;99903.09;;;17.31;70.21
52855;BME280;38719;51.418;7.286;2022-08-21T04:05:50;99907.38;;;17.34;69.54
52855;BME280;38719;51.418;7.286;2022-08-21T04:08:18;99909.13;;;17.22;70.65
52855;BME280;38719;51.418;7.286;2022-08-21T04:10:48;99911.19;;;17.18;70.84
52855;BME280;38719;51.418;7.286;2022-08-21T04:13:16;99906.38;;;17.11;71.35
52855;BME280;38719;51.418;7.286;2022-08-21T04:15:44;99915.56;;;17.32;70.97
52855;BME280;38719;51.418;7.286;2022-08-21T04:18:11;99914.25;;;17.38;69.68
52855;BME280;38719;51.418;7.286;2022-08-21T04:20:42;99916.19;;;17.36;69.90
52855;BME280;38719;51.418;7.286;2022-08-21T04:23:16;99922.91;;;17.30;70.61
52855;BME280;38719;51.418;7.286;2022-08-21T04:25:50;99918.38;;;17.31;69.77
52855;BME280;38719;51.418;7.286;2022-08-21T04:28:18;99920.94;;;17.32;69.79
52855;BME280;38719;51.418;7.286;2022-08-21T04:30:45;99906.97;;;17.27;70.51
52855;BME280;38719;51.418;7.286;2022-08-21T04:33:13;99914.41;;;17.23;70.33
52855;BME280;38719;51.418;7.286;2022-08-21T04:35:42;99916.88;;;17.27;70.11
52855;BME280;38719;51.418;7.286;2022-08-21T04:38:10;99914.97;;;17.16;70.69
52855;BME280;38719;51.418;7.286;2022-08-21T04:40:38;99916.47;;;17.20;71.55
52855;BME280;38719;51.418;7.286;2022-08-21T04:43:07;99917.41;;;17.32;70.30
52855;BME280;38719;51.418;7.286;2022-08-21T04:45:37;99917.97;;;17.24;70.08
52855;BME280;38719;51.418;7.286;2022-08-21T04:48:07;99924.53;;;17.20;70.57
52855;BME280;38719;51.418;7.286;2022-08-21T04:50:44;99923.56;;;17.21;70.92
52855;BME280;38719;51.418;7.286;2022-08-21T04:53:15;99916.56;;;17.31;70.64
52855;BME280;38719;51.418;7.286;2022-08-21T04:55:46;99928.28;;;17.30;70.40
52855;BME280;38719;51.418;7.286;2022-08-21T04:58:16;99920.22;;;17.30;70.38
52855;BME280;38719;51.418;7.286;2022-08-21T05:00:46;99925.34;;;17.33;70.14
52855;BME280;38719;51.418;7.286;2022-08-21T05:03:15;99923.09;;;17.40;70.56
52855;BME280;38719;51.418;7.286;2022-08-21T05:05:45;99932.00;;;17.40;70.79
52855;BME280;38719;51.418;7.286;2022-08-21T05:08:15;99925.97;;;17.37;71.03
52855;BME280;38719;51.418;7.286;2022-08-21T05:10:46;99926.50;;;17.42;70.85
52855;BME280;38719;51.418;7.286;2022-08-21T05:13:14;99925.53;;;17.43;71.11
52855;BME280;38719;51.418;7.286;2022-08-21T05:15:41;99927.75;;;17.49;71.27
52855;BME280;38719;51.418;7.286;2022-08-21T05:18:09;99932.88;;;17.65;70.74
52855;BME280;38719;51.418;7.286;2022-08-21T05:20:37;99927.41;;;17.78;70.22
52855;BME280;38719;51.418;7.286;2022-08-21T05:23:08;99929.47;;;17.99;68.99
52855;BME280;38719;51.418;7.286;2022-08-21T05:25:36;99930.38;;;18.11;69.08
52855;BME280;38719;51.418;7.286;2022-08-21T05:28:04;99928.00;;;18.30;67.44
52855;BME280;38719;51.418;7.286;2022-08-21T05:30:33;99920.13;;;18.39;67.15
52855;BME280;38719;51.418;7.286;2022-08-21T05:33:02;99931.06;;;18.48;67.03
52855;BME280;38719;51.418;7.286;2022-08-21T05:35:31;99933.03;;;18.58;67.17
52855;BME280;38719;51.418;7.286;2022-08-21T05:37:59;99938.19;;;18.61;67.09
52855;BME280;38719;51.418;7.286;2022-08-21T05:40:28;99933.31;;;18.77;66.56
52855;BME280;38719;51.418;7.286;2022-08-21T05:42:56;99930.69;;;18.87;66.12
52855;BME280;38719;51.418;7.286;2022-08-21T05:45:29;99927.28;;;19.08;65.12
52855;BME280;38719;51.418;7.286;2022-08-21T05:48:10;99928.34;;;19.28;64.50
52855;BME280;38719;51.418;7.286;2022-08-21T05:50:38;99931.56;;;19.33;63.07
52855;BME280;38719;51.418;7.286;2022-08-21T05:53:07;99938.03;;;19.42;63.44
52855;BME280;38719;51.418;7.286;2022-08-21T05:55:37;99934.16;;;19.23;64.75
52855;BME280;38719;51.418;7.286;2022-08-21T05:58:10;99946.53;;;19.26;64.71
52855;BME280;38719;51.418;7.286;2022-08-21T06:00:38;99940.53;;;19.22;64.34
52855;BME280;38719;51.418;7.286;2022-08-21T06:03:10;99936.84;;;19.23;64.33
52855;BME280;38719;51.418;7.286;2022-08-21T06:05:38;99941.47;;;19.32;63.51
52855;BME280;38719;51.418;7.286;2022-08-21T06:08:06;99935.44;;;19.40;62.97
52855;BME280;38719;51.418;7.286;2022-08-21T06:10:34;99939.88;;;19.41;63.18
52855;BME280;38719;51.418;7.286;2022-08-21T06:13:03;99937.28;;;19.51;62.43
52855;BME280;38719;51.418;7.286;2022-08-21T06:15:30;99938.63;;;19.57;62.72
52855;BME280;38719;51.418;7.286;2022-08-21T06:17:58;99930.25;;;19.60;62.72
52855;BME280;38719;51.418;7.286;2022-08-21T06:20:26;99936.00;;;19.67;62.64
52855;BME280;38719;51.418;7.286;2022-08-21T06:22:54;99942.84;;;19.71;62.56
52855;BME280;38719;51.418;7.286;2022-08-21T06:25:22;99937.19;;;19.74;62.82
52855;BME280;38719;51.418;7.286;2022-08-21T06:27:50;99933.91;;;19.70;62.84
52855;BME280;38719;51.418;7.286;2022-08-21T06:30:19;99941.22;;;19.79;62.63
52855;BME280;38719;51.418;7.286;2022-08-21T06:32:47;99939.75;;;19.87;62.40
52855;BME280;38719;51.418;7.286;2022-08-21T06:35:15;99939.97;;;19.95;62.17
52855;BME280;38719;51.418;7.286;2022-08-21T06:37:42;99934.22;;;20.09;61.77
52855;BME280;38719;51.418;7.286;2022-08-21T06:40:11;99941.44;;;20.20;61.78
52855;BME280;38719;51.418;7.286;2022-08-21T06:42:39;99942.34;;;20.30;61.63
52855;BME280;38719;51.418;7.286;2022-08-21T06:45:09;99939.97;;;20.37;61.31
52855;BME280;38719;51.418;7.286;2022-08-21T06:47:39;99944.41;;;20.38;61.74
52855;BME280;38719;51.418;7.286;2022-08-21T06:50:07;99947.28;;;20.46;61.49
52855;BME280;38719;51.418;7.286;2022-08-21T06:52:35;99939.09;;;20.58;60.83
52855;BME280;38719;51.418;7.286;2022-08-21T06:55:05;99934.00;;;20.65;60.21
52855;BME280;38719;51.418;7.286;2022-08-21T06:57:37;99936.81;;;20.74;59.90
52855;BME280;38719;51.418;7.286;2022-08-21T07:00:06;99937.38;;;20.78;59.62
52855;BME280;38719;51.418;7.286;2022-08-21T07:02:34;99942.50;;;20.81;59.81
52855;BME280;38719;51.418;7.286;2022-08-21T07:05:08;99936.31;;;20.90;59.48
52855;BME280;38719;51.418;7.286;2022-08-21T07:07:44;99935.88;;;20.85;59.47
52855;BME280;38719;51.418;7.286;2022-08-21T07:10:12;99936.31;;;20.90;59.31
52855;BME280;38719;51.418;7.286;2022-08-21T07:12:48;99938.03;;;21.01;59.04
52855;BME280;38719;51.418;7.286;2022-08-21T07:15:16;99941.91;;;21.08;58.70
52855;BME280;38719;51.418;7.286;2022-08-21T07:17:44;99929.25;;;21.09;58.60
52855;BME280;38719;51.418;7.286;2022-08-21T07:20:13;99929.53;;;21.16;58.55
52855;BME280;38719;51.418;7.286;2022-08-21T07:22:41;99934.22;;;21.04;58.29
52855;BME280;38719;51.418;7.286;2022-08-21T07:25:09;99932.34;;;21.04;58.30
52855;BME280;38719;51.418;7.286;2022-08-21T07:27:36;99934.53;;;21.20;58.13
52855;BME280;38719;51.418;7.286;2022-08-21T07:30:05;99927.72;;;21.36;57.91
52855;BME280;38719;51.418;7.286;2022-08-21T07:32:33;99928.44;;;21.38;57.29
52855;BME280;38719;51.418;7.286;2022-08-21T07:35:01;99927.72;;;21.26;57.33
52855;BME280;38719;51.418;7.286;2022-08-21T07:37:30;99925.00;;;21.16;56.96
52855;BME280;38719;51.418;7.286;2022-08-21T07:39:57;99932.91;;;20.98;57.76
52855;BME280;38719;51.418;7.286;2022-08-21T07:42:25;99924.81;;;21.08;57.58
52855;BME280;38719;51.418;7.286;2022-08-21T07:44:54;99925.25;;;21.13;57.43
52855;BME280;38719;51.418;7.286;2022-08-21T07:47:22;99928.97;;;21.22;57.57
52855;BME280;38719;51.418;7.286;2022-08-21T07:50:07;99925.72;;;21.28;57.17
52855;BME280;38719;51.418;7.286;2022-08-21T07:52:36;99931.72;;;21.32;55.63
52855;BME280;38719;51.418;7.286;2022-08-21T07:55:05;99930.91;;;21.41;55.85
52855;BME280;38719;51.418;7.286;2022-08-21T07:57:32;99919.25;;;21.60;55.76
52855;BME280;38719;51.418;7.286;2022-08-21T08:00:00;99928.81;;;21.74;55.43
52855;BME280;38719;51.418;7.286;2022-08-21T08:02:29;99936.66;;;21.77;54.71
52855;BME280;38719;51.418;7.286;2022-08-21T08:04:58;99937.50;;;21.78;54.54
52855;BME280;38719;51.418;7.286;2022-08-21T08:07:26;99935.22;;;21.73;52.94
52855;BME280;38719;51.418;7.286;2022-08-21T08:09:55;99936.09;;;21.83;53.11
52855;BME280;38719;51.418;7.286;2022-08-21T08:12:23;99935.38;;;21.81;52.51
52855;BME280;38719;51.418;7.286;2022-08-21T08:14:55;99939.38;;;21.87;52.41
52855;BME280;38719;51.418;7.286;2022-08-21T08:17:23;99930.69;;;21.93;51.83
52855;BME280;38719;51.418;7.286;2022-08-21T08:19:52;99936.94;;;21.94;50.62
52855;BME280;38719;51.418;7.286;2022-08-21T08:22:22;99946.06;;;21.93;51.25
52855;BME280;38719;51.418;7.286;2022-08-21T08:24:51;99943.22;;;21.84;50.77
52855;BME280;38719;51.418;7.286;2022-08-21T08:27:21;99942.94;;;21.87;50.83
52855;BME280;38719;51.418;7.286;2022-08-21T08:29:49;99936.78;;;21.95;51.24
52855;BME280;38719;51.418;7.286;2022-08-21T08:32:18;99935.06;;;22.04;50.95
52855;BME280;38719;51.418;7.286;2022-08-21T08:34:46;99932.94;;;22.08;51.01
52855;BME280;38719;51.418;7.286;2022-08-21T08:37:15;99933.81;;;22.08;50.74
52855;BME280;38719;51.418;7.286;2022-08-21T08:39:43;99932.91;;;22.17;50.86
52855;BME280;38719;51.418;7.286;2022-08-21T08:42:16;99933.50;;;22.11;50.63
52855;BME280;38719;51.418;7.286;2022-08-21T08:45:03;99928.06;;;22.11;50.90
52855;BME280;38719;51.418;7.286;2022-08-21T08:47:35;99930.66;;;22.13;50.64
52855;BME280;38719;51.418;7.286;2022-08-21T08:50:07;99927.66;;;22.16;50.96
52855;BME280;38719;51.418;7.286;2022-08-21T08:52:40;99928.06;;;22.31;50.35
52855;BME280;38719;51.418;7.286;2022-08-21T08:55:13;99930.34;;;22.35;50.10
52855;BME280;38719;51.418;7.286;2022-08-21T08:57:45;99927.22;;;22.40;50.01
52855;BME280;38719;51.418;7.286;2022-08-21T09:00:20;99933.44;;;22.60;50.10
52855;BME280;38719;51.418;7.286;2022-08-21T09:02:50;99928.84;;;22.61;49.63
52855;BME280;38719;51.418;7.286;2022-08-21T09:05:23;99927.84;;;22.72;49.24
52855;BME280;38719;51.418;7.286;2022-08-21T09:08:02;99923.41;;;22.70;49.05
52855;BME280;38719;51.418;7.286;2022-08-21T09:10:39;99929.09;;;22.77;48.58
52855;BME280;38719;51.418;7.286;2022-08-21T09:13:17;99915.50;;;22.87;48.70
52855;BME280;38719;51.418;7.286;2022-08-21T09:15:53;99906.09;;;22.81;48.16
52855;BME280;38719;51.418;7.286;2022-08-21T09:18:31;99895.97;;;23.01;48.43
52855;BME280;38719;51.418;7.286;2022-08-21T09:21:18;99910.41;;;23.02;48.38
52855;BME280;38719;51.418;7.286;2022-08-21T09:23:50;99893.81;;;23.33;48.75
52855;BME280;38719;51.418;7.286;2022-08-21T09:26:23;99890.56;;;23.47;48.22
52855;BME280;38719;51.418;7.286;2022-08-21T09:28:53;99885.59;;;23.61;47.62
52855;BME280;38719;51.418;7.286;2022-08-21T09:31:26;99889.16;;;23.79;47.94
52855;BME280;38719;51.418;7.286;2022-08-21T09:33:58;99897.88;;;23.83;46.56
52855;BME280;38719;51.418;7.286;2022-08-21T09:36:33;99903.84;;;23.87;45.90
52855;BME280;38719;51.418;7.286;2022-08-21T09:39:02;99900.53;;;23.93;45.90
52855;BME280;38719;51.418;7.286;2022-08-21T09:41:32;99900.06;;;23.97;45.91
52855;BME280;38719;51.418;7.286;2022-08-21T09:44:02;99899.75;;;23.82;45.50
52855;BME280;38719;51.418;7.286;2022-08-21T09:46:32;99905.22;;;23.91;46.28
52855;BME280;38719;51.418;7.286;2022-08-21T09:49:02;99906.22;;;24.00;46.15
52855;BME280;38719;51.418;7.286;2022-08-21T09:51:36;99905.94;;;23.75;46.11
52855;BME280;38719;51.418;7.286;2022-08-21T09:54:14;99903.53;;;23.90;45.87
52855;BME280;38719;51.418;7.286;2022-08-21T09:56:55;99903.69;;;24.06;46.04
52855;BME280;38719;51.418;7.286;2022-08-21T09:59:40;99902.91;;;24.14;45.36
52855;BME280;38719;51.418;7.286;2022-08-21T10:02:29;99899.81;;;24.35;45.24
52855;BME280;38719;51.418;7.286;2022-08-21T10:04:59;99902.78;;;24.42;44.48
52855;BME280;38719;51.418;7.286;2022-08-21T10:07:29;99890.91;;;24.51;44.85
52855;BME280;38719;51.418;7.286;2022-08-21T10:09:59;99888.72;;;24.55;44.60
52855;BME280;38719;51.418;7.286;2022-08-21T10:12:33;99884.50;;;24.60;43.78
52855;BME280;38719;51.418;7.286;2022-08-21T10:15:12;99879.16;;;24.77;44.22
52855;BME280;38719;51.418;7.286;2022-08-21T10:17:52;99874.25;;;24.81;43.78
52855;BME280;38719;51.418;7.286;2022-08-21T10:20:25;99873.41;;;24.88;43.81
52855;BME280;38719;51.418;7.286;2022-08-21T10:23:13;99876.88;;;24.99;44.64
52855;BME280;38719;51.418;7.286;2022-08-21T10:25:50;99878.13;;;25.13;43.55
52855;BME280;38719;51.418;7.286;2022-08-21T10:28:44;99869.22;;;25.02;42.27
52855;BME280;38719;51.418;7.286;2022-08-21T10:31:21;99874.88;;;25.09;42.87
52855;BME280;38719;51.418;7.286;2022-08-21T10:34:10;99860.59;;;25.15;43.56
52855;BME280;38719;51.418;7.286;2022-08-21T10:36:46;99869.88;;;25.47;42.84
52855;BME280;38719;51.418;7.286;2022-08-21T10:39:19;99861.53;;;25.49;41.91
52855;BME280;38719;51.418;7.286;2022-08-21T10:42:22;99858.47;;;25.60;41.19
52855;BME280;38719;51.418;7.286;2022-08-21T10:45:02;99868.53;;;25.76;41.78
52855;BME280;38719;51.418;7.286;2022-08-21T10:47:37;99868.19;;;25.96;40.70
52855;BME280;38719;51.418;7.286;2022-08-21T10:50:17;99862.38;;;25.99;39.84
52855;BME280;38719;51.418;7.286;2022-08-21T10:53:00;99857.28;;;25.87;40.29
52855;BME280;38719;51.418;7.286;2022-08-21T10:55:34;99855.75;;;26.01;40.33
52855;BME280;38719;51.418;7.286;2022-08-21T10:58:09;99842.94;;;26.18;40.97
52855;BME280;38719;51.418;7.286;2022-08-21T11:00:40;99850.81;;;26.21;40.25
52855;BME280;38719;51.418;7.286;2022-08-21T11:03:14;99847.00;;;26.39;39.88
52855;BME280;38719;51.418;7.286;2022-08-21T11:05:48;99851.63;;;26.38;39.24
52855;BME280;38719;51.418;7.286;2022-08-21T11:08:21;99846.81;;;26.49;38.54
52855;BME280;38719;51.418;7.286;2022-08-21T11:10:53;99845.22;;;26.63;38.62
52855;BME280;38719;51.418;7.286;2022-08-21T11:13:31;99845.03;;;26.64;38.76
52855;BME280;38719;51.418;7.286;2022-08-21T11:16:07;99844.31;;;26.79;38.29
52855;BME280;38719;51.418;7.286;2022-08-21T11:18:39;99849.59;;;26.80;38.90
52855;BME280;38719;51.418;7.286;2022-08-21T11:21:26;99842.88;;;26.99;38.35
52855;BME280;38719;51.418;7.286;2022-08-21T11:24:00;99846.19;;;27.18;37.40
52855;BME280;38719;51.418;7.286;2022-08-21T11:26:36;99841.47;;;27.03;36.18
52855;BME280;38719;51.418;7.286;2022-08-21T11:29:11;99846.22;;;27.10;38.22
52855;BME280;38719;51.418;7.286;2022-08-21T11:31:53;99842.66;;;27.09;36.03
52855;BME280;38719;51.418;7.286;2022-08-21T11:34:36;99850.16;;;27.07;37.05
52855;BME280;38719;51.418;7.286;2022-08-21T11:37:19;99850.28;;;27.14;37.09
52855;BME280;38719;51.418;7.286;2022-08-21T11:39:58;99844.53;;;27.40;36.35
52855;BME280;38719;51.418;7.286;2022-08-21T11:42:35;99842.59;;;27.49;35.80
52855;BME280;38719;51.418;7.286;2022-08-21T11:45:16;99838.75;;;27.58;35.75
52855;BME280;38719;51.418;7.286;2022-08-21T11:47:56;99839.97;;;27.56;35.67
52855;BME280;38719;51.418;7.286;2022-08-21T11:50:30;99846.84;;;27.51;35.98
52855;BME280;38719;51.418;7.286;2022-08-21T11:53:07;99844.94;;;27.52;35.82
52855;BME280;38719;51.418;7.286;2022-08-21T11:55:39;99859.72;;;27.66;35.04
52855;BME280;38719;51.418;7.286;2022-08-21T11:58:12;99855.28;;;27.65;35.56
52855;BME280;38719;51.418;7.286;2022-08-21T12:00:46;99855.28;;;27.65;35.11
52855;BME280;38719;51.418;7.286;2022-08-21T12:03:17;99856.84;;;27.59;35.21
52855;BME280;38719;51.418;7.286;2022-08-21T12:05:53;99856.13;;;27.65;35.24
52855;BME280;38719;51.418;7.286;2022-08-21T12:08:31;99851.88;;;27.63;35.29
52855;BME280;38719;51.418;7.286;2022-08-21T12:11:02;99857.16;;;27.64;34.78
52855;BME280;38719;51.418;7.286;2022-08-21T12:13:33;99848.22;;;27.71;34.75
52855;BME280;38719;51.418;7.286;2022-08-21T12:16:11;99855.63;;;27.85;35.67
52855;BME280;38719;51.418;7.286;2022-08-21T12:18:40;99842.97;;;27.84;35.62
52855;BME280;38719;51.418;7.286;2022-08-21T12:21:23;99846.94;;;28.05;35.21
52855;BME280;38719;51.418;7.286;2022-08-21T12:24:05;99848.94;;;28.11;35.25
52855;BME280;38719;51.418;7.286;2022-08-21T12:26:49;99844.31;;;28.26;34.35
52855;BME280;38719;51.418;7.286;2022-08-21T12:29:23;99845.16;;;28.12;35.12
52855;BME280;38719;51.418;7.286;2022-08-21T12:31:56;99845.03;;;28.05;34.89
52855;BME280;38719;51.418;7.286;2022-08-21T12:34:31;99841.47;;;28.05;34.95
52855;BME280;38719;51.418;7.286;2022-08-21T12:37:03;99843.81;;;28.23;34.10
52855;BME280;38719;51.418;7.286;2022-08-21T12:39:36;99844.22;;;28.20;34.17
52855;BME280;38719;51.418;7.286;2022-08-21T12:42:10;99843.19;;;28.36;33.77
52855;BME280;38719;51.418;7.286;2022-08-21T12:44:45;99843.66;;;28.09;34.46
52855;BME280;38719;51.418;7.286;2022-08-21T12:47:24;99846.00;;;28.27;35.40
52855;BME280;38719;51.418;7.286;2022-08-21T12:49:58;99842.31;;;28.35;34.43
52855;BME280;38719;51.418;7.286;2022-08-21T12:52:30;99853.66;;;28.32;34.68
52855;BME280;38719;51.418;7.286;2022-08-21T12:55:07;99847.25;;;28.25;36.05
52855;BME280;38719;51.418;7.286;2022-08-21T12:57:40;99840.47;;;28.51;35.28
52855;BME280;38719;51.418;7.286;2022-08-21T13:00:11;99832.25;;;28.36;34.80
52855;BME280;38719;51.418;7.286;2022-08-21T13:02:44;99840.66;;;28.19;36.07
52855;BME280;38719;51.418;7.286;2022-08-21T13:05:16;99828.75;;;28.12;34.90
52855;BME280;38719;51.418;7.286;2022-08-21T13:07:48;99835.53;;;28.16;35.25
52855;BME280;38719;51.418;7.286;2022-08-21T13:10:20;99824.31;;;28.26;35.40
52855;BME280;38719;51.418;7.286;2022-08-21T13:12:49;99830.34;;;28.36;36.31
52855;BME280;38719;51.418;7.286;2022-08-21T13:15:23;99822.13;;;28.36;34.06
52855;BME280;38719;51.418;7.286;2022-08-21T13:17:59;99821.38;;;28.42;33.73
52855;BME280;38719;51.418;7.286;2022-08-21T13:20:31;99823.56;;;28.47;33.97
52855;BME280;38719;51.418;7.286;2022-08-21T13:23:01;99836.50;;;28.53;35.23